Portada
METAR-TAF:

METAR-TAF

Aeroports :

Hefei, Xina

latitud: 31-52N, longitud: 117-14E, altitud: 36 m

Observació

L'informe es va fer fa 49 minuts, a les 19:00 UTC
Vent 6 kt del Sud/Sud-Est
Temperatura 24°C
Humitat 83%
Pressió 1005 hPa
Visibilitat 10 km o més
sense núvols per sota de 1500 mi sense presència de cumulonimbus.

METAR: ZSOF 011900Z 16003MPS CAVOK 24/21 Q1005 NOSIG

Hora: 03:49 (19:49 UTC)

Pronòstic

L'informe es va fer fa 4 hores i 46 minuts, a les 15:03 UTC
Pronòstic vàlid del 01 a les 18 UTC al 02 a les 18 UTC
Vent 6 kt del Sud
Visibilitat: 6000 m

TAF: ZSOF 011503Z 0118/0218 18003MPS 6000 NSC TX34/0206Z TN24/0122Z

Observacions i pronòstics meteorològics de més de 4000 aeroports (METAR i TAF).

Les estacions disponibles són els punts grocs i vermells al mapa.

Posi el ratolí al punt desitjat per veure el nom de l'estació.

Feu clic per veure les observacions i els pronòstics meteorològics.

Per canviar el mapa: feu clic els botons verds amb una creu de color negre per apropar; al botó verd amb un guió per allunyar la imatge; o en les fletxes verdes per a mapes adjacents.


METAR-TAF: